Time;durP1;ratioP1;P1;durP2;ratioP2;P2;SDS_P1;SDS_P2;PMS_P1;PMS_P2;Temp;Humidity;BMP_temperature;BMP_pressure;BME280_temperature;BME280_humidity;BME280_pressure;Samples;Min_cycle;Max_cycle;Signal;HPM_P1;HPM_P2
2021/05/01 11:13:26;;;;;;;31.20;30.02;;;;;;;;;;5070807;28;20508;-69
2021/05/01 11:15:56;;;;;;;32.17;30.98;;;;;;;;;;5070658;28;20222;-68
2021/05/01 11:18:24;;;;;;;37.42;35.88;;;;;;;;;;5070603;28;20701;-69
2021/05/01 11:20:52;;;;;;;41.67;39.92;;;;;;;;;;5070606;28;20255;-69
2021/05/01 11:23:21;;;;;;;45.80;43.88;;;;;;;;;;5070496;28;20200;-69
2021/05/01 11:25:48;;;;;;;49.13;47.10;;;;;;;;;;5070526;28;20160;-69
2021/05/01 11:28:17;;;;;;;47.60;45.53;;;;;;;;;;5070395;28;20244;-69
2021/05/01 11:30:43;;;;;;;49.30;46.88;;;;;;;;;;5070448;28;20160;-69
2021/05/01 11:33:09;;;;;;;49.83;47.63;;;;;;;;;;5070269;28;20607;-69
2021/05/01 11:35:36;;;;;;;47.85;45.78;;;;;;;;;;5070264;28;20633;-69
2021/05/01 11:38:03;;;;;;;52.33;49.95;;;;;;;;;;5070252;28;20653;-69
2021/05/01 11:40:33;;;;;;;49.03;46.92;;;;;;;;;;5070189;28;20183;-69
2021/05/01 11:43:00;;;;;;;51.53;49.30;;;;;;;;;;5070098;28;20176;-69
2021/05/01 11:45:37;;;;;;;51.28;49.03;;;;;;;;;;5070083;28;20196;-69
2021/05/01 11:48:05;;;;;;;47.45;45.45;;;;;;;;;;5070037;28;20169;-69
2021/05/01 11:50:32;;;;;;;49.03;47.03;;;;;;;;;;5070019;28;20173;-69
2021/05/01 11:53:09;;;;;;;49.33;47.15;;;;;;;;;;5069862;28;20208;-69
2021/05/01 11:55:55;;;;;;;47.33;45.30;;;;;;;;;;5069846;28;20247;-69
2021/05/01 11:58:31;;;;;;;45.78;43.60;;;;;;;;;;5069614;28;20271;-68
2021/05/01 12:01:17;;;;;;;46.88;44.88;;;;;;;;;;5069760;28;20653;-69
2021/05/01 12:03:43;;;;;;;38.97;37.42;;;;;;;;;;5069674;28;20179;-69
2021/05/01 12:06:21;;;;;;;37.15;35.75;;;;;;;;;;5069689;28;20172;-69
2021/05/01 12:08:48;;;;;;;34.20;32.80;;;;;;;;;;5069610;28;20202;-69
2021/05/01 12:11:16;;;;;;;35.92;34.53;;;;;;;;;;5068018;28;20176;-69
2021/05/01 12:13:46;;;;;;;37.08;35.60;;;;;;;;;;5069485;28;20165;-69
2021/05/01 12:16:22;;;;;;;41.80;40.10;;;;;;;;;;5069338;28;20754;-69
2021/05/01 12:18:49;;;;;;;40.92;39.13;;;;;;;;;;5069351;28;20256;-69
2021/05/01 12:21:19;;;;;;;43.95;42.15;;;;;;;;;;5069312;28;20180;-69
2021/05/01 12:23:47;;;;;;;46.25;44.38;;;;;;;;;;5060536;28;20268;-69
2021/05/01 12:26:33;;;;;;;48.08;45.97;;;;;;;;;;5056074;28;20165;-69
2021/05/01 12:29:17;;;;;;;46.60;44.60;;;;;;;;;;5055983;28;20169;-68
2021/05/01 12:31:44;;;;;;;46.00;44.13;;;;;;;;;;5055874;28;20655;-66
2021/05/01 12:34:10;;;;;;;49.92;46.97;;;;;;;;;;5054605;28;20200;-66
2021/05/01 12:36:40;;;;;;;46.50;44.50;;;;;;;;;;5055900;28;20208;-67
2021/05/01 12:39:06;;;;;;;46.72;44.83;;;;;;;;;;5055679;28;20165;-67
2021/05/01 12:41:34;;;;;;;46.83;44.90;;;;;;;;;;5055723;28;20179;-67
2021/05/01 12:44:00;;;;;;;47.05;45.17;;;;;;;;;;5054362;28;20260;-67
2021/05/01 12:46:27;;;;;;;47.83;45.80;;;;;;;;;;5055662;28;20204;-67
2021/05/01 12:48:54;;;;;;;47.72;45.72;;;;;;;;;;5055514;28;20195;-67
2021/05/01 12:51:29;;;;;;;49.60;47.42;;;;;;;;;;5055458;28;20161;-67
2021/05/01 12:53:57;;;;;;;47.15;45.22;;;;;;;;;;5055511;28;20268;-67
2021/05/01 12:56:36;;;;;;;48.00;46.05;;;;;;;;;;5055437;28;20165;-67
2021/05/01 12:59:17;;;;;;;47.67;45.67;;;;;;;;;;5055478;28;20165;-67
2021/05/01 13:01:44;;;;;;;47.38;45.38;;;;;;;;;;5055406;28;20218;-67
2021/05/01 13:04:15;;;;;;;45.80;43.95;;;;;;;;;;5055312;28;20169;-67
2021/05/01 13:06:42;;;;;;;47.10;45.08;;;;;;;;;;5055331;28;20162;-67
2021/05/01 13:09:09;;;;;;;47.65;45.63;;;;;;;;;;5055245;28;20655;-67
2021/05/01 13:11:35;;;;;;;46.40;44.50;;;;;;;;;;5054939;28;20248;-67
2021/05/01 13:14:17;;;;;;;47.70;45.78;;;;;;;;;;5055184;28;20165;-67
2021/05/01 13:16:59;;;;;;;44.05;42.28;;;;;;;;;;5055046;28;20166;-67
2021/05/01 13:19:29;;;;;;;44.92;43.05;;;;;;;;;;5055004;28;20255;-69
2021/05/01 13:21:59;;;;;;;44.33;42.53;;;;;;;;;;5054966;28;20568;-67
2021/05/01 13:24:36;;;;;;;44.95;43.03;;;;;;;;;;5053759;28;20197;-67
2021/05/01 13:27:03;;;;;;;44.78;42.92;;;;;;;;;;5054904;28;20251;-67
2021/05/01 13:29:30;;;;;;;46.40;44.22;;;;;;;;;;5054855;28;20165;-67
2021/05/01 13:31:56;;;;;;;46.58;44.70;;;;;;;;;;5054786;28;20255;-67
2021/05/01 13:34:23;;;;;;;46.55;44.70;;;;;;;;;;5054457;28;20192;-67
2021/05/01 13:36:49;;;;;;;45.28;43.47;;;;;;;;;;5054106;28;20224;-67
2021/05/01 13:39:22;;;;;;;47.25;45.30;;;;;;;;;;5054652;28;20184;-67
2021/05/01 13:42:08;;;;;;;48.35;46.28;;;;;;;;;;5054605;28;20177;-67
2021/05/01 13:44:37;;;;;;;47.25;45.25;;;;;;;;;;5054548;28;20199;-67
2021/05/01 13:47:03;;;;;;;46.95;45.05;;;;;;;;;;5054511;28;20173;-67
2021/05/01 13:49:29;;;;;;;48.20;46.25;;;;;;;;;;5054487;28;20187;-67
2021/05/01 13:51:55;;;;;;;48.17;46.08;;;;;;;;;;5054316;28;20193;-67
2021/05/01 13:54:26;;;;;;;46.17;44.20;;;;;;;;;;5054366;28;20169;-67
2021/05/01 13:56:52;;;;;;;44.97;43.13;;;;;;;;;;5054275;28;20184;-67
2021/05/01 13:59:28;;;;;;;45.10;43.00;;;;;;;;;;5054244;28;20165;-67
2021/05/01 14:01:54;;;;;;;43.45;41.60;;;;;;;;;;5054236;28;20173;-67
2021/05/01 14:04:33;;;;;;;42.88;41.17;;;;;;;;;;5052908;28;20181;-67
2021/05/01 14:07:00;;;;;;;44.95;43.10;;;;;;;;;;5054110;28;20173;-67
2021/05/01 14:09:33;;;;;;;43.97;42.25;;;;;;;;;;5054137;28;20169;-67
2021/05/01 14:12:00;;;;;;;47.53;45.60;;;;;;;;;;5053785;28;20282;-67
2021/05/01 14:14:27;;;;;;;48.83;46.83;;;;;;;;;;5054043;28;20199;-67
2021/05/01 14:17:00;;;;;;;50.40;48.22;;;;;;;;;;5053924;28;20199;-67
2021/05/01 14:19:27;;;;;;;52.25;50.05;;;;;;;;;;5053832;28;20193;-67
2021/05/01 14:21:53;;;;;;;49.40;47.30;;;;;;;;;;5053684;28;20631;-67
2021/05/01 14:24:19;;;;;;;51.72;49.33;;;;;;;;;;5053921;28;20177;-67
2021/05/01 14:26:49;;;;;;;51.70;49.60;;;;;;;;;;5053684;28;20172;-67
2021/05/01 14:29:15;;;;;;;51.22;49.13;;;;;;;;;;5052296;28;20652;-67
2021/05/01 14:31:41;;;;;;;49.90;47.83;;;;;;;;;;5053429;28;20189;-67
2021/05/01 14:34:09;;;;;;;48.33;46.40;;;;;;;;;;5053536;28;20184;-67
2021/05/01 14:36:35;;;;;;;48.65;46.67;;;;;;;;;;5052203;28;20586;-67
2021/05/01 14:39:01;;;;;;;48.22;46.22;;;;;;;;;;5053453;28;20223;-67
2021/05/01 14:41:27;;;;;;;50.88;48.78;;;;;;;;;;5053385;28;20193;-67
2021/05/01 14:43:53;;;;;;;52.10;49.90;;;;;;;;;;5053343;28;20165;-67
2021/05/01 14:46:21;;;;;;;52.47;50.28;;;;;;;;;;5053033;28;20173;-67
2021/05/01 14:49:06;;;;;;;53.33;51.03;;;;;;;;;;5053330;28;20192;-67
2021/05/01 14:51:33;;;;;;;55.17;52.78;;;;;;;;;;5053153;28;20525;-67
2021/05/01 14:54:13;;;;;;;56.03;53.47;;;;;;;;;;5053276;28;20181;-67
2021/05/01 14:56:58;;;;;;;52.78;50.55;;;;;;;;;;5053091;28;20184;-67
2021/05/01 14:59:50;;;;;;;52.13;49.72;;;;;;;;;;5053215;28;20199;-67
2021/05/01 15:02:18;;;;;;;49.38;47.35;;;;;;;;;;5044867;28;20204;-67
2021/05/01 15:05:00;;;;;;;49.83;47.63;;;;;;;;;;5053142;28;20169;-67
2021/05/01 15:07:30;;;;;;;50.17;48.08;;;;;;;;;;5053079;28;20200;-67
2021/05/01 15:09:57;;;;;;;50.03;47.72;;;;;;;;;;5051843;28;20541;-67
2021/05/01 15:12:23;;;;;;;49.85;47.75;;;;;;;;;;5052822;28;20257;-67
2021/05/01 15:15:04;;;;;;;51.72;49.58;;;;;;;;;;5051730;28;20173;-67
2021/05/01 15:17:47;;;;;;;47.75;45.85;;;;;;;;;;5052860;28;20165;-67
2021/05/01 15:20:14;;;;;;;50.55;48.47;;;;;;;;;;5052959;28;20165;-67
2021/05/01 15:22:40;;;;;;;51.72;49.42;;;;;;;;;;5052946;28;20172;-67
2021/05/01 15:25:06;;;;;;;51.83;49.63;;;;;;;;;;5052906;28;20533;-67
2021/05/01 15:27:32;;;;;;;54.20;51.90;;;;;;;;;;5052839;28;20169;-67
2021/05/01 15:30:12;;;;;;;55.25;52.85;;;;;;;;;;5052860;28;20173;-67
2021/05/01 15:32:38;;;;;;;49.40;47.42;;;;;;;;;;5052843;28;20200;-67
2021/05/01 15:35:04;;;;;;;52.28;50.10;;;;;;;;;;5052890;28;20169;-67
2021/05/01 15:37:30;;;;;;;48.97;46.97;;;;;;;;;;5051490;28;20226;-67
2021/05/01 15:39:57;;;;;;;51.80;49.60;;;;;;;;;;5051507;28;20184;-67
2021/05/01 15:42:23;;;;;;;56.85;54.47;;;;;;;;;;5052758;28;20528;-67
2021/05/01 15:44:49;;;;;;;57.85;55.40;;;;;;;;;;5052687;28;20177;-67
2021/05/01 15:47:15;;;;;;;56.53;54.13;;;;;;;;;;5052649;28;20639;-67
2021/05/01 15:49:41;;;;;;;52.22;50.00;;;;;;;;;;5052672;28;20169;-67
2021/05/01 15:52:06;;;;;;;49.38;47.28;;;;;;;;;;5052531;28;20539;-67
2021/05/01 15:54:32;;;;;;;53.38;51.15;;;;;;;;;;5052624;28;20234;-67
2021/05/01 15:57:03;;;;;;;49.55;47.53;;;;;;;;;;5052438;28;20224;-67
2021/05/01 15:59:29;;;;;;;50.75;48.65;;;;;;;;;;5055045;28;20161;-67
2021/05/01 16:01:55;;;;;;;49.00;46.92;;;;;;;;;;5056353;28;20169;-67
2021/05/01 16:04:20;;;;;;;49.40;47.38;;;;;;;;;;5056337;28;20640;-67
2021/05/01 16:06:46;;;;;;;50.90;48.50;;;;;;;;;;5056305;28;20173;-67
2021/05/01 16:09:12;;;;;;;51.13;48.92;;;;;;;;;;5056256;28;20169;-67
2021/05/01 16:11:38;;;;;;;51.67;49.42;;;;;;;;;;5055899;28;20736;-67
2021/05/01 16:14:04;;;;;;;51.28;48.97;;;;;;;;;;5056184;28;20583;-67
2021/05/01 16:16:30;;;;;;;51.80;49.67;;;;;;;;;;5056059;28;20169;-67
2021/05/01 16:18:56;;;;;;;51.60;49.40;;;;;;;;;;5056067;28;20212;-67
2021/05/01 16:21:22;;;;;;;52.63;50.42;;;;;;;;;;5055984;28;20653;-67
2021/05/01 16:23:48;;;;;;;47.45;45.47;;;;;;;;;;5056043;28;20165;-67
2021/05/01 16:26:14;;;;;;;50.55;48.50;;;;;;;;;;5054527;28;20222;-67
2021/05/01 16:28:40;;;;;;;46.05;44.17;;;;;;;;;;5055881;28;20169;-67
2021/05/01 16:31:06;;;;;;;45.60;43.80;;;;;;;;;;5055839;28;20177;-67
2021/05/01 16:33:32;;;;;;;42.88;41.17;;;;;;;;;;5055681;28;20197;-67
2021/05/01 16:35:58;;;;;;;45.65;43.42;;;;;;;;;;5055682;28;20670;-68
2021/05/01 16:38:24;;;;;;;46.35;44.35;;;;;;;;;;5055731;28;20596;-67
2021/05/01 16:40:50;;;;;;;43.83;42.13;;;;;;;;;;5055728;28;20173;-67
2021/05/01 16:43:16;;;;;;;45.60;43.78;;;;;;;;;;5055695;28;20179;-67
2021/05/01 16:45:42;;;;;;;47.28;45.35;;;;;;;;;;5055686;28;20181;-67
2021/05/01 16:48:08;;;;;;;46.65;44.45;;;;;;;;;;5055701;28;20177;-67
2021/05/01 16:50:34;;;;;;;43.60;41.88;;;;;;;;;;5055661;28;20169;-67
2021/05/01 16:53:01;;;;;;;47.95;45.97;;;;;;;;;;5055614;28;20224;-67
2021/05/01 16:55:27;;;;;;;47.35;45.45;;;;;;;;;;5055460;28;20169;-67
2021/05/01 16:57:53;;;;;;;47.78;45.85;;;;;;;;;;5055462;28;20200;-67
2021/05/01 17:00:19;;;;;;;47.05;45.15;;;;;;;;;;5055477;28;20176;-67
2021/05/01 17:02:46;;;;;;;46.60;44.70;;;;;;;;;;5055443;28;20179;-67
2021/05/01 17:05:12;;;;;;;47.83;45.63;;;;;;;;;;5055339;28;20576;-67
2021/05/01 17:07:38;;;;;;;46.17;43.97;;;;;;;;;;5055192;28;20673;-67
2021/05/01 17:10:05;;;;;;;45.90;44.05;;;;;;;;;;5055017;28;20192;-66
2021/05/01 17:12:31;;;;;;;46.53;44.42;;;;;;;;;;5054898;28;20216;-69
2021/05/01 17:14:57;;;;;;;45.55;43.65;;;;;;;;;;5053871;28;20630;-69
2021/05/01 17:17:23;;;;;;;48.55;46.55;;;;;;;;;;5054976;28;20269;-69
2021/05/01 17:19:49;;;;;;;47.97;45.88;;;;;;;;;;5054999;28;20173;-70
2021/05/01 17:22:17;;;;;;;48.85;46.80;;;;;;;;;;5054990;28;20171;-69
2021/05/01 17:24:43;;;;;;;47.17;45.28;;;;;;;;;;5054852;28;20165;-69
2021/05/01 17:55:41;;;;;;;38.65;37.15;;;;;;;;;;5090893;28;20519;-70
2021/05/01 17:58:08;;;;;;;43.80;42.00;;;;;;;;;;5090827;28;20175;-71
2021/05/01 18:00:34;;;;;;;49.85;47.75;;;;;;;;;;5090783;28;20171;-71
